sensor_id;sensor_type;location;lat;lon;timestamp;P1;durP1;ratioP1;P2;durP2;ratioP2
12267;SDS011;6196;48.398;11.736;2022-09-19T00:01:51;1.43;;;0.90;;
12267;SDS011;6196;48.398;11.736;2022-09-19T00:04:21;2.00;;;1.10;;
12267;SDS011;6196;48.398;11.736;2022-09-19T00:06:58;2.63;;;1.00;;
12267;SDS011;6196;48.398;11.736;2022-09-19T00:09:27;1.50;;;1.10;;
12267;SDS011;6196;48.398;11.736;2022-09-19T00:11:58;1.83;;;1.13;;
12267;SDS011;6196;48.398;11.736;2022-09-19T00:14:27;2.40;;;1.10;;
12267;SDS011;6196;48.398;11.736;2022-09-19T00:16:58;2.33;;;1.10;;
12267;SDS011;6196;48.398;11.736;2022-09-19T00:19:33;2.37;;;1.20;;
12267;SDS011;6196;48.398;11.736;2022-09-19T00:22:01;1.30;;;1.10;;
12267;SDS011;6196;48.398;11.736;2022-09-19T00:24:29;3.87;;;1.30;;
12267;SDS011;6196;48.398;11.736;2022-09-19T00:27:13;1.90;;;1.10;;
12267;SDS011;6196;48.398;11.736;2022-09-19T00:29:44;1.13;;;1.03;;
12267;SDS011;6196;48.398;11.736;2022-09-19T00:32:11;2.17;;;1.40;;
12267;SDS011;6196;48.398;11.736;2022-09-19T00:34:40;0.60;;;0.60;;
12267;SDS011;6196;48.398;11.736;2022-09-19T00:37:10;1.00;;;0.50;;
12267;SDS011;6196;48.398;11.736;2022-09-19T00:39:37;0.70;;;0.53;;
12267;SDS011;6196;48.398;11.736;2022-09-19T00:42:05;0.30;;;0.30;;
12267;SDS011;6196;48.398;11.736;2022-09-19T00:47:11;0.50;;;0.40;;
12267;SDS011;6196;48.398;11.736;2022-09-19T00:49:43;0.27;;;0.20;;
12267;SDS011;6196;48.398;11.736;2022-09-19T00:52:17;0.40;;;0.40;;
12267;SDS011;6196;48.398;11.736;2022-09-19T00:54:53;0.40;;;0.30;;
12267;SDS011;6196;48.398;11.736;2022-09-19T00:57:21;0.30;;;0.30;;
12267;SDS011;6196;48.398;11.736;2022-09-19T00:59:52;0.97;;;0.30;;
12267;SDS011;6196;48.398;11.736;2022-09-19T01:02:19;0.57;;;0.30;;
12267;SDS011;6196;48.398;11.736;2022-09-19T01:04:47;0.20;;;0.20;;
12267;SDS011;6196;48.398;11.736;2022-09-19T01:18:32;0.20;;;0.20;;
12267;SDS011;6196;48.398;11.736;2022-09-19T01:27:36;2.63;;;0.30;;
12267;SDS011;6196;48.398;11.736;2022-09-19T01:30:21;0.20;;;0.20;;
12267;SDS011;6196;48.398;11.736;2022-09-19T01:32:57;0.50;;;0.20;;
12267;SDS011;6196;48.398;11.736;2022-09-19T01:35:33;0.20;;;0.20;;
12267;SDS011;6196;48.398;11.736;2022-09-19T01:38:12;0.67;;;0.30;;
12267;SDS011;6196;48.398;11.736;2022-09-19T01:40:50;1.60;;;0.50;;
12267;SDS011;6196;48.398;11.736;2022-09-19T01:43:18;0.30;;;0.30;;
12267;SDS011;6196;48.398;11.736;2022-09-19T01:45:46;0.67;;;0.20;;
12267;SDS011;6196;48.398;11.736;2022-09-19T01:48:27;0.30;;;0.20;;
12267;SDS011;6196;48.398;11.736;2022-09-19T01:51:18;0.53;;;0.20;;
12267;SDS011;6196;48.398;11.736;2022-09-19T01:57:08;0.40;;;0.20;;
12267;SDS011;6196;48.398;11.736;2022-09-19T02:02:47;0.20;;;0.20;;
12267;SDS011;6196;48.398;11.736;2022-09-19T02:08:39;1.43;;;0.20;;
12267;SDS011;6196;48.398;11.736;2022-09-19T02:11:17;0.33;;;0.30;;
12267;SDS011;6196;48.398;11.736;2022-09-19T02:13:46;0.37;;;0.30;;
12267;SDS011;6196;48.398;11.736;2022-09-19T02:19:07;0.73;;;0.30;;
12267;SDS011;6196;48.398;11.736;2022-09-19T02:22:03;0.13;;;0.13;;
12267;SDS011;6196;48.398;11.736;2022-09-19T02:24:35;0.30;;;0.13;;
12267;SDS011;6196;48.398;11.736;2022-09-19T02:27:16;0.30;;;0.20;;
12267;SDS011;6196;48.398;11.736;2022-09-19T02:29:48;0.73;;;0.20;;
12267;SDS011;6196;48.398;11.736;2022-09-19T02:32:20;0.70;;;0.40;;
12267;SDS011;6196;48.398;11.736;2022-09-19T02:34:47;0.77;;;0.20;;
12267;SDS011;6196;48.398;11.736;2022-09-19T02:37:29;0.20;;;0.20;;
12267;SDS011;6196;48.398;11.736;2022-09-19T02:43:14;0.50;;;0.30;;
12267;SDS011;6196;48.398;11.736;2022-09-19T02:45:58;0.97;;;0.30;;
12267;SDS011;6196;48.398;11.736;2022-09-19T02:48:53;1.33;;;0.67;;
12267;SDS011;6196;48.398;11.736;2022-09-19T02:51:26;0.57;;;0.30;;
12267;SDS011;6196;48.398;11.736;2022-09-19T02:54:07;0.60;;;0.20;;
12267;SDS011;6196;48.398;11.736;2022-09-19T02:56:45;0.13;;;0.13;;
12267;SDS011;6196;48.398;11.736;2022-09-19T02:59:21;0.30;;;0.20;;
12267;SDS011;6196;48.398;11.736;2022-09-19T03:01:58;0.60;;;0.23;;
12267;SDS011;6196;48.398;11.736;2022-09-19T03:04:35;0.67;;;0.20;;
12267;SDS011;6196;48.398;11.736;2022-09-19T03:07:13;0.20;;;0.20;;
12267;SDS011;6196;48.398;11.736;2022-09-19T03:09:56;0.30;;;0.30;;
12267;SDS011;6196;48.398;11.736;2022-09-19T03:12:31;1.50;;;0.30;;
12267;SDS011;6196;48.398;11.736;2022-09-19T03:15:07;0.50;;;0.30;;
12267;SDS011;6196;48.398;11.736;2022-09-19T03:17:37;0.20;;;0.20;;
12267;SDS011;6196;48.398;11.736;2022-09-19T03:20:10;1.00;;;0.40;;
12267;SDS011;6196;48.398;11.736;2022-09-19T03:22:40;0.77;;;0.30;;
12267;SDS011;6196;48.398;11.736;2022-09-19T03:25:08;0.47;;;0.40;;
12267;SDS011;6196;48.398;11.736;2022-09-19T03:27:36;0.70;;;0.40;;
12267;SDS011;6196;48.398;11.736;2022-09-19T03:30:06;0.87;;;0.40;;
12267;SDS011;6196;48.398;11.736;2022-09-19T03:32:40;1.97;;;0.40;;
12267;SDS011;6196;48.398;11.736;2022-09-19T03:35:07;1.40;;;0.40;;
12267;SDS011;6196;48.398;11.736;2022-09-19T03:37:36;1.70;;;0.53;;
12267;SDS011;6196;48.398;11.736;2022-09-19T03:40:03;0.90;;;0.40;;
12267;SDS011;6196;48.398;11.736;2022-09-19T03:42:30;2.43;;;0.53;;
12267;SDS011;6196;48.398;11.736;2022-09-19T03:45:01;2.00;;;0.50;;
12267;SDS011;6196;48.398;11.736;2022-09-19T03:47:30;1.80;;;0.43;;
12267;SDS011;6196;48.398;11.736;2022-09-19T03:49:57;3.43;;;0.70;;
12267;SDS011;6196;48.398;11.736;2022-09-19T03:52:24;2.27;;;0.70;;
12267;SDS011;6196;48.398;11.736;2022-09-19T03:54:53;2.50;;;1.03;;
12267;SDS011;6196;48.398;11.736;2022-09-19T03:57:20;1.10;;;0.70;;
12267;SDS011;6196;48.398;11.736;2022-09-19T03:59:47;1.63;;;0.60;;
12267;SDS011;6196;48.398;11.736;2022-09-19T04:02:14;4.93;;;0.70;;
12267;SDS011;6196;48.398;11.736;2022-09-19T04:04:41;1.23;;;0.60;;
12267;SDS011;6196;48.398;11.736;2022-09-19T04:07:08;1.90;;;0.60;;
12267;SDS011;6196;48.398;11.736;2022-09-19T04:09:35;1.50;;;0.60;;
12267;SDS011;6196;48.398;11.736;2022-09-19T04:12:02;2.10;;;0.40;;
12267;SDS011;6196;48.398;11.736;2022-09-19T04:14:31;1.57;;;0.60;;
12267;SDS011;6196;48.398;11.736;2022-09-19T04:17:00;4.30;;;0.77;;
12267;SDS011;6196;48.398;11.736;2022-09-19T04:19:47;3.53;;;0.83;;
12267;SDS011;6196;48.398;11.736;2022-09-19T04:22:16;2.63;;;0.70;;
12267;SDS011;6196;48.398;11.736;2022-09-19T04:24:45;0.97;;;0.70;;
12267;SDS011;6196;48.398;11.736;2022-09-19T04:27:11;3.37;;;0.70;;
12267;SDS011;6196;48.398;11.736;2022-09-19T04:29:45;1.37;;;0.63;;
12267;SDS011;6196;48.398;11.736;2022-09-19T04:32:12;2.13;;;0.80;;
12267;SDS011;6196;48.398;11.736;2022-09-19T04:34:41;1.40;;;0.77;;
12267;SDS011;6196;48.398;11.736;2022-09-19T04:37:09;1.07;;;0.77;;
12267;SDS011;6196;48.398;11.736;2022-09-19T04:39:38;4.93;;;0.90;;
12267;SDS011;6196;48.398;11.736;2022-09-19T04:42:06;4.30;;;0.60;;
12267;SDS011;6196;48.398;11.736;2022-09-19T04:44:33;1.23;;;0.60;;
12267;SDS011;6196;48.398;11.736;2022-09-19T04:47:00;3.00;;;0.80;;
12267;SDS011;6196;48.398;11.736;2022-09-19T04:49:27;3.97;;;0.87;;
12267;SDS011;6196;48.398;11.736;2022-09-19T04:52:02;4.00;;;0.80;;
12267;SDS011;6196;48.398;11.736;2022-09-19T04:54:29;2.57;;;0.70;;
12267;SDS011;6196;48.398;11.736;2022-09-19T04:57:01;6.40;;;1.17;;
12267;SDS011;6196;48.398;11.736;2022-09-19T04:59:31;5.93;;;0.90;;
12267;SDS011;6196;48.398;11.736;2022-09-19T05:02:00;3.30;;;0.83;;
12267;SDS011;6196;48.398;11.736;2022-09-19T05:04:29;1.93;;;0.70;;
12267;SDS011;6196;48.398;11.736;2022-09-19T05:06:55;5.77;;;1.33;;
12267;SDS011;6196;48.398;11.736;2022-09-19T05:09:22;2.37;;;0.83;;
12267;SDS011;6196;48.398;11.736;2022-09-19T05:11:50;3.57;;;1.00;;
12267;SDS011;6196;48.398;11.736;2022-09-19T05:14:19;3.63;;;0.90;;
12267;SDS011;6196;48.398;11.736;2022-09-19T05:16:48;3.10;;;1.00;;
12267;SDS011;6196;48.398;11.736;2022-09-19T05:19:16;2.83;;;0.90;;
12267;SDS011;6196;48.398;11.736;2022-09-19T05:21:44;2.17;;;0.80;;
12267;SDS011;6196;48.398;11.736;2022-09-19T05:24:11;4.13;;;0.97;;
12267;SDS011;6196;48.398;11.736;2022-09-19T05:26:37;3.63;;;1.40;;
12267;SDS011;6196;48.398;11.736;2022-09-19T05:29:06;3.87;;;1.03;;
12267;SDS011;6196;48.398;11.736;2022-09-19T05:31:39;2.17;;;0.90;;
12267;SDS011;6196;48.398;11.736;2022-09-19T05:34:07;3.40;;;1.10;;
12267;SDS011;6196;48.398;11.736;2022-09-19T05:36:36;3.10;;;1.10;;
12267;SDS011;6196;48.398;11.736;2022-09-19T05:39:04;5.90;;;1.60;;
12267;SDS011;6196;48.398;11.736;2022-09-19T05:41:31;4.47;;;1.10;;
12267;SDS011;6196;48.398;11.736;2022-09-19T05:43:58;3.97;;;1.00;;
12267;SDS011;6196;48.398;11.736;2022-09-19T05:46:25;4.33;;;1.00;;
12267;SDS011;6196;48.398;11.736;2022-09-19T05:48:56;4.43;;;1.00;;
12267;SDS011;6196;48.398;11.736;2022-09-19T05:51:23;1.90;;;1.10;;
12267;SDS011;6196;48.398;11.736;2022-09-19T05:53:51;3.60;;;0.90;;
12267;SDS011;6196;48.398;11.736;2022-09-19T05:56:18;3.90;;;1.07;;
12267;SDS011;6196;48.398;11.736;2022-09-19T05:58:45;2.53;;;1.20;;
12267;SDS011;6196;48.398;11.736;2022-09-19T06:01:12;4.17;;;1.17;;
12267;SDS011;6196;48.398;11.736;2022-09-19T06:03:40;4.77;;;1.27;;
12267;SDS011;6196;48.398;11.736;2022-09-19T06:06:07;4.00;;;1.20;;
12267;SDS011;6196;48.398;11.736;2022-09-19T06:08:44;5.43;;;0.90;;
12267;SDS011;6196;48.398;11.736;2022-09-19T06:11:14;1.83;;;1.10;;
12267;SDS011;6196;48.398;11.736;2022-09-19T06:13:41;4.87;;;1.10;;
12267;SDS011;6196;48.398;11.736;2022-09-19T06:16:27;3.57;;;1.00;;
12267;SDS011;6196;48.398;11.736;2022-09-19T06:18:54;4.93;;;1.20;;
12267;SDS011;6196;48.398;11.736;2022-09-19T06:21:21;4.60;;;1.03;;
12267;SDS011;6196;48.398;11.736;2022-09-19T06:23:48;3.23;;;0.80;;
12267;SDS011;6196;48.398;11.736;2022-09-19T06:26:15;3.47;;;0.77;;
12267;SDS011;6196;48.398;11.736;2022-09-19T06:28:42;7.73;;;1.17;;
12267;SDS011;6196;48.398;11.736;2022-09-19T06:31:09;5.30;;;1.10;;
12267;SDS011;6196;48.398;11.736;2022-09-19T06:33:35;5.17;;;1.03;;
12267;SDS011;6196;48.398;11.736;2022-09-19T06:36:02;2.67;;;1.40;;
12267;SDS011;6196;48.398;11.736;2022-09-19T06:38:29;5.17;;;1.20;;
12267;SDS011;6196;48.398;11.736;2022-09-19T06:40:59;1.90;;;0.90;;
12267;SDS011;6196;48.398;11.736;2022-09-19T06:43:26;7.27;;;1.00;;
12267;SDS011;6196;48.398;11.736;2022-09-19T06:45:53;4.30;;;1.70;;
12267;SDS011;6196;48.398;11.736;2022-09-19T06:48:20;2.67;;;1.40;;
12267;SDS011;6196;48.398;11.736;2022-09-19T06:50:47;6.50;;;0.90;;
12267;SDS011;6196;48.398;11.736;2022-09-19T06:53:14;1.20;;;0.87;;
12267;SDS011;6196;48.398;11.736;2022-09-19T06:55:42;4.37;;;1.10;;
12267;SDS011;6196;48.398;11.736;2022-09-19T06:58:13;3.17;;;1.00;;
12267;SDS011;6196;48.398;11.736;2022-09-19T07:00:41;2.77;;;1.33;;
12267;SDS011;6196;48.398;11.736;2022-09-19T07:03:12;4.03;;;1.33;;
12267;SDS011;6196;48.398;11.736;2022-09-19T07:05:41;3.47;;;1.10;;
12267;SDS011;6196;48.398;11.736;2022-09-19T07:08:10;3.73;;;1.20;;
12267;SDS011;6196;48.398;11.736;2022-09-19T07:10:40;5.33;;;1.13;;
12267;SDS011;6196;48.398;11.736;2022-09-19T07:13:09;4.60;;;1.63;;
12267;SDS011;6196;48.398;11.736;2022-09-19T07:15:40;2.73;;;0.90;;
12267;SDS011;6196;48.398;11.736;2022-09-19T07:18:07;3.60;;;1.20;;
12267;SDS011;6196;48.398;11.736;2022-09-19T07:20:36;2.43;;;1.20;;
12267;SDS011;6196;48.398;11.736;2022-09-19T07:23:05;5.93;;;1.30;;
12267;SDS011;6196;48.398;11.736;2022-09-19T07:25:40;3.57;;;1.20;;
12267;SDS011;6196;48.398;11.736;2022-09-19T07:28:09;3.50;;;1.40;;
12267;SDS011;6196;48.398;11.736;2022-09-19T07:30:39;2.07;;;1.30;;
12267;SDS011;6196;48.398;11.736;2022-09-19T07:33:09;2.57;;;1.13;;
12267;SDS011;6196;48.398;11.736;2022-09-19T07:35:39;2.97;;;1.00;;
12267;SDS011;6196;48.398;11.736;2022-09-19T07:38:11;5.27;;;1.20;;
12267;SDS011;6196;48.398;11.736;2022-09-19T07:40:44;3.97;;;1.10;;
12267;SDS011;6196;48.398;11.736;2022-09-19T07:43:12;3.57;;;1.10;;
12267;SDS011;6196;48.398;11.736;2022-09-19T07:45:47;3.27;;;1.40;;
12267;SDS011;6196;48.398;11.736;2022-09-19T07:48:17;6.63;;;1.27;;
12267;SDS011;6196;48.398;11.736;2022-09-19T07:50:45;6.07;;;1.50;;
12267;SDS011;6196;48.398;11.736;2022-09-19T07:53:20;6.53;;;1.67;;
12267;SDS011;6196;48.398;11.736;2022-09-19T07:55:52;7.33;;;1.70;;
12267;SDS011;6196;48.398;11.736;2022-09-19T07:58:22;4.27;;;1.10;;
12267;SDS011;6196;48.398;11.736;2022-09-19T08:00:51;2.23;;;1.20;;
12267;SDS011;6196;48.398;11.736;2022-09-19T08:03:19;4.17;;;1.53;;
12267;SDS011;6196;48.398;11.736;2022-09-19T08:05:48;4.53;;;1.57;;
12267;SDS011;6196;48.398;11.736;2022-09-19T08:08:17;3.60;;;1.60;;
12267;SDS011;6196;48.398;11.736;2022-09-19T08:10:47;4.70;;;1.63;;
12267;SDS011;6196;48.398;11.736;2022-09-19T08:13:15;7.20;;;2.70;;
12267;SDS011;6196;48.398;11.736;2022-09-19T08:15:44;5.83;;;1.80;;
12267;SDS011;6196;48.398;11.736;2022-09-19T08:18:15;4.07;;;1.93;;
12267;SDS011;6196;48.398;11.736;2022-09-19T08:20:45;5.27;;;1.87;;
12267;SDS011;6196;48.398;11.736;2022-09-19T08:23:14;8.63;;;2.60;;
12267;SDS011;6196;48.398;11.736;2022-09-19T08:25:44;6.63;;;2.70;;
12267;SDS011;6196;48.398;11.736;2022-09-19T08:28:17;6.63;;;3.30;;
12267;SDS011;6196;48.398;11.736;2022-09-19T08:30:48;6.50;;;2.10;;
12267;SDS011;6196;48.398;11.736;2022-09-19T08:33:15;6.07;;;1.30;;
12267;SDS011;6196;48.398;11.736;2022-09-19T08:35:43;7.93;;;1.90;;
12267;SDS011;6196;48.398;11.736;2022-09-19T08:38:10;4.03;;;1.60;;
12267;SDS011;6196;48.398;11.736;2022-09-19T08:43:10;4.50;;;1.50;;
12267;SDS011;6196;48.398;11.736;2022-09-19T08:51:53;3.43;;;1.60;;
12267;SDS011;6196;48.398;11.736;2022-09-19T08:54:30;5.67;;;2.00;;
12267;SDS011;6196;48.398;11.736;2022-09-19T08:57:01;5.43;;;1.70;;
12267;SDS011;6196;48.398;11.736;2022-09-19T08:59:31;3.10;;;1.27;;
12267;SDS011;6196;48.398;11.736;2022-09-19T09:05:13;4.03;;;1.40;;
12267;SDS011;6196;48.398;11.736;2022-09-19T09:07:49;2.67;;;1.50;;
12267;SDS011;6196;48.398;11.736;2022-09-19T09:10:29;5.27;;;2.00;;
12267;SDS011;6196;48.398;11.736;2022-09-19T09:19:25;4.90;;;1.57;;
12267;SDS011;6196;48.398;11.736;2022-09-19T09:25:01;6.10;;;3.10;;
12267;SDS011;6196;48.398;11.736;2022-09-19T09:27:41;3.27;;;1.87;;
12267;SDS011;6196;48.398;11.736;2022-09-19T09:30:21;7.10;;;2.23;;
12267;SDS011;6196;48.398;11.736;2022-09-19T09:32:49;7.40;;;2.00;;
12267;SDS011;6196;48.398;11.736;2022-09-19T09:35:24;4.67;;;1.33;;
12267;SDS011;6196;48.398;11.736;2022-09-19T09:40:53;4.87;;;1.70;;
12267;SDS011;6196;48.398;11.736;2022-09-19T09:46:55;2.03;;;1.03;;
12267;SDS011;6196;48.398;11.736;2022-09-19T09:49:30;7.00;;;2.20;;
12267;SDS011;6196;48.398;11.736;2022-09-19T09:58:12;4.27;;;1.73;;
12267;SDS011;6196;48.398;11.736;2022-09-19T10:00:57;4.80;;;2.23;;
12267;SDS011;6196;48.398;11.736;2022-09-19T10:04:48;6.03;;;1.50;;
12267;SDS011;6196;48.398;11.736;2022-09-19T10:07:33;5.20;;;1.70;;
12267;SDS011;6196;48.398;11.736;2022-09-19T10:10:13;4.37;;;1.70;;
12267;SDS011;6196;48.398;11.736;2022-09-19T10:13:04;4.53;;;2.30;;
12267;SDS011;6196;48.398;11.736;2022-09-19T10:15:51;4.37;;;1.60;;
12267;SDS011;6196;48.398;11.736;2022-09-19T10:18:23;3.13;;;1.43;;
12267;SDS011;6196;48.398;11.736;2022-09-19T10:20:54;9.30;;;4.10;;
12267;SDS011;6196;48.398;11.736;2022-09-19T10:23:23;6.63;;;2.50;;
12267;SDS011;6196;48.398;11.736;2022-09-19T10:25:59;3.53;;;1.50;;
12267;SDS011;6196;48.398;11.736;2022-09-19T10:28:33;4.03;;;1.60;;
12267;SDS011;6196;48.398;11.736;2022-09-19T10:31:04;4.33;;;1.23;;
12267;SDS011;6196;48.398;11.736;2022-09-19T10:33:41;3.93;;;1.30;;
12267;SDS011;6196;48.398;11.736;2022-09-19T10:36:17;6.50;;;1.23;;
12267;SDS011;6196;48.398;11.736;2022-09-19T10:38:54;5.30;;;1.43;;
12267;SDS011;6196;48.398;11.736;2022-09-19T10:41:26;2.50;;;1.10;;
12267;SDS011;6196;48.398;11.736;2022-09-19T10:46:57;2.97;;;1.00;;
12267;SDS011;6196;48.398;11.736;2022-09-19T10:49:30;5.03;;;1.50;;
12267;SDS011;6196;48.398;11.736;2022-09-19T10:52:22;3.20;;;1.30;;
12267;SDS011;6196;48.398;11.736;2022-09-19T10:55:16;1.97;;;1.13;;
12267;SDS011;6196;48.398;11.736;2022-09-19T10:57:53;5.30;;;1.50;;
12267;SDS011;6196;48.398;11.736;2022-09-19T11:00:30;2.43;;;1.20;;
12267;SDS011;6196;48.398;11.736;2022-09-19T11:03:21;3.10;;;1.40;;
12267;SDS011;6196;48.398;11.736;2022-09-19T11:06:14;5.63;;;1.30;;
12267;SDS011;6196;48.398;11.736;2022-09-19T11:08:46;3.53;;;1.23;;
12267;SDS011;6196;48.398;11.736;2022-09-19T11:11:34;3.60;;;1.10;;
12267;SDS011;6196;48.398;11.736;2022-09-19T11:22:57;3.00;;;1.30;;
12267;SDS011;6196;48.398;11.736;2022-09-19T11:25:47;6.03;;;1.37;;
12267;SDS011;6196;48.398;11.736;2022-09-19T11:31:43;5.23;;;1.47;;
12267;SDS011;6196;48.398;11.736;2022-09-19T11:37:58;3.30;;;1.20;;
12267;SDS011;6196;48.398;11.736;2022-09-19T11:47:46;4.47;;;1.03;;
12267;SDS011;6196;48.398;11.736;2022-09-19T11:56:46;5.27;;;1.50;;
12267;SDS011;6196;48.398;11.736;2022-09-19T12:11:13;3.53;;;1.50;;
12267;SDS011;6196;48.398;11.736;2022-09-19T12:13:56;4.37;;;1.20;;
12267;SDS011;6196;48.398;11.736;2022-09-19T12:19:14;3.47;;;1.23;;
12267;SDS011;6196;48.398;11.736;2022-09-19T12:21:50;4.03;;;1.20;;
12267;SDS011;6196;48.398;11.736;2022-09-19T12:24:23;2.40;;;1.43;;
12267;SDS011;6196;48.398;11.736;2022-09-19T12:30:03;4.13;;;1.30;;
12267;SDS011;6196;48.398;11.736;2022-09-19T12:32:36;3.63;;;1.73;;
12267;SDS011;6196;48.398;11.736;2022-09-19T12:35:29;4.80;;;1.37;;
12267;SDS011;6196;48.398;11.736;2022-09-19T12:38:41;5.07;;;1.40;;
12267;SDS011;6196;48.398;11.736;2022-09-19T12:41:18;3.97;;;1.57;;
12267;SDS011;6196;48.398;11.736;2022-09-19T12:53:18;5.13;;;1.27;;
12267;SDS011;6196;48.398;11.736;2022-09-19T12:56:11;3.43;;;1.20;;
12267;SDS011;6196;48.398;11.736;2022-09-19T13:01:26;4.80;;;1.43;;
12267;SDS011;6196;48.398;11.736;2022-09-19T13:07:41;1.77;;;1.00;;
12267;SDS011;6196;48.398;11.736;2022-09-19T13:16:01;1.50;;;0.80;;
12267;SDS011;6196;48.398;11.736;2022-09-19T13:18:34;1.87;;;0.93;;
12267;SDS011;6196;48.398;11.736;2022-09-19T13:21:22;1.77;;;0.90;;
12267;SDS011;6196;48.398;11.736;2022-09-19T13:24:19;5.17;;;1.00;;
12267;SDS011;6196;48.398;11.736;2022-09-19T13:26:54;1.60;;;0.87;;
12267;SDS011;6196;48.398;11.736;2022-09-19T13:31:56;3.67;;;1.00;;
12267;SDS011;6196;48.398;11.736;2022-09-19T13:40:22;2.60;;;0.90;;
12267;SDS011;6196;48.398;11.736;2022-09-19T13:43:13;2.03;;;1.07;;
12267;SDS011;6196;48.398;11.736;2022-09-19T13:48:40;2.70;;;1.03;;
12267;SDS011;6196;48.398;11.736;2022-09-19T13:56:47;2.23;;;1.03;;
12267;SDS011;6196;48.398;11.736;2022-09-19T13:59:31;2.20;;;0.93;;
12267;SDS011;6196;48.398;11.736;2022-09-19T14:04:40;1.70;;;0.90;;
12267;SDS011;6196;48.398;11.736;2022-09-19T14:07:22;2.97;;;1.20;;
12267;SDS011;6196;48.398;11.736;2022-09-19T14:10:17;1.50;;;1.10;;
12267;SDS011;6196;48.398;11.736;2022-09-19T14:18:40;2.23;;;1.00;;
12267;SDS011;6196;48.398;11.736;2022-09-19T14:27:23;3.40;;;1.07;;
12267;SDS011;6196;48.398;11.736;2022-09-19T14:30:17;2.43;;;0.80;;
12267;SDS011;6196;48.398;11.736;2022-09-19T14:47:56;1.07;;;0.70;;
12267;SDS011;6196;48.398;11.736;2022-09-19T14:50:30;1.20;;;0.70;;
12267;SDS011;6196;48.398;11.736;2022-09-19T14:53:05;2.07;;;0.70;;
12267;SDS011;6196;48.398;11.736;2022-09-19T14:55:56;1.33;;;0.70;;
12267;SDS011;6196;48.398;11.736;2022-09-19T14:58:29;1.73;;;0.70;;
12267;SDS011;6196;48.398;11.736;2022-09-19T15:01:15;2.37;;;0.70;;
12267;SDS011;6196;48.398;11.736;2022-09-19T15:06:31;2.20;;;0.70;;
12267;SDS011;6196;48.398;11.736;2022-09-19T15:09:02;3.13;;;0.80;;
12267;SDS011;6196;48.398;11.736;2022-09-19T15:11:29;1.77;;;0.77;;
12267;SDS011;6196;48.398;11.736;2022-09-19T15:13:56;1.70;;;0.73;;
12267;SDS011;6196;48.398;11.736;2022-09-19T15:16:23;3.67;;;0.93;;
12267;SDS011;6196;48.398;11.736;2022-09-19T15:18:57;2.33;;;0.60;;
12267;SDS011;6196;48.398;11.736;2022-09-19T15:21:26;2.20;;;0.80;;
12267;SDS011;6196;48.398;11.736;2022-09-19T15:23:58;1.33;;;0.70;;
12267;SDS011;6196;48.398;11.736;2022-09-19T15:26:29;2.30;;;0.73;;
12267;SDS011;6196;48.398;11.736;2022-09-19T15:29:03;2.43;;;0.80;;
12267;SDS011;6196;48.398;11.736;2022-09-19T15:35:07;2.33;;;0.90;;
12267;SDS011;6196;48.398;11.736;2022-09-19T15:37:40;2.00;;;0.90;;
12267;SDS011;6196;48.398;11.736;2022-09-19T15:40:14;1.50;;;0.87;;
12267;SDS011;6196;48.398;11.736;2022-09-19T15:42:47;2.83;;;1.00;;
12267;SDS011;6196;48.398;11.736;2022-09-19T15:45:34;2.50;;;0.90;;
12267;SDS011;6196;48.398;11.736;2022-09-19T15:50:47;1.80;;;0.80;;
12267;SDS011;6196;48.398;11.736;2022-09-19T15:53:19;3.57;;;1.30;;
12267;SDS011;6196;48.398;11.736;2022-09-19T15:56:12;1.53;;;0.87;;
12267;SDS011;6196;48.398;11.736;2022-09-19T15:58:51;3.90;;;1.10;;
12267;SDS011;6196;48.398;11.736;2022-09-19T16:06:38;2.23;;;0.80;;
12267;SDS011;6196;48.398;11.736;2022-09-19T16:09:30;2.53;;;0.90;;
12267;SDS011;6196;48.398;11.736;2022-09-19T16:12:00;3.97;;;1.17;;
12267;SDS011;6196;48.398;11.736;2022-09-19T16:14:33;1.63;;;0.90;;
12267;SDS011;6196;48.398;11.736;2022-09-19T16:17:12;1.83;;;0.93;;
12267;SDS011;6196;48.398;11.736;2022-09-19T16:19:43;2.33;;;0.90;;
12267;SDS011;6196;48.398;11.736;2022-09-19T16:22:15;2.47;;;1.00;;
12267;SDS011;6196;48.398;11.736;2022-09-19T16:24:50;2.73;;;0.90;;
12267;SDS011;6196;48.398;11.736;2022-09-19T16:27:21;2.30;;;0.93;;
12267;SDS011;6196;48.398;11.736;2022-09-19T16:29:50;3.07;;;1.30;;
12267;SDS011;6196;48.398;11.736;2022-09-19T16:32:20;3.53;;;1.23;;
12267;SDS011;6196;48.398;11.736;2022-09-19T16:34:51;2.93;;;1.13;;
12267;SDS011;6196;48.398;11.736;2022-09-19T16:37:25;2.00;;;1.13;;
12267;SDS011;6196;48.398;11.736;2022-09-19T16:40:00;4.20;;;1.00;;
12267;SDS011;6196;48.398;11.736;2022-09-19T16:42:32;8.40;;;1.40;;
12267;SDS011;6196;48.398;11.736;2022-09-19T16:45:22;2.03;;;1.20;;
12267;SDS011;6196;48.398;11.736;2022-09-19T16:48:06;3.87;;;1.17;;
12267;SDS011;6196;48.398;11.736;2022-09-19T16:50:35;1.77;;;0.87;;
12267;SDS011;6196;48.398;11.736;2022-09-19T16:53:09;3.37;;;1.00;;
12267;SDS011;6196;48.398;11.736;2022-09-19T16:55:40;2.97;;;0.93;;
12267;SDS011;6196;48.398;11.736;2022-09-19T16:58:10;2.67;;;1.00;;
12267;SDS011;6196;48.398;11.736;2022-09-19T17:00:39;2.83;;;1.37;;
12267;SDS011;6196;48.398;11.736;2022-09-19T17:03:08;1.70;;;1.00;;
12267;SDS011;6196;48.398;11.736;2022-09-19T17:05:36;2.20;;;1.00;;
12267;SDS011;6196;48.398;11.736;2022-09-19T17:08:04;4.37;;;1.40;;
12267;SDS011;6196;48.398;11.736;2022-09-19T17:10:32;4.20;;;1.40;;
12267;SDS011;6196;48.398;11.736;2022-09-19T17:13:00;2.10;;;1.03;;
12267;SDS011;6196;48.398;11.736;2022-09-19T17:15:41;2.07;;;1.13;;
12267;SDS011;6196;48.398;11.736;2022-09-19T17:18:27;2.17;;;1.27;;
12267;SDS011;6196;48.398;11.736;2022-09-19T17:20:56;1.97;;;1.33;;
12267;SDS011;6196;48.398;11.736;2022-09-19T17:23:25;2.80;;;1.00;;
12267;SDS011;6196;48.398;11.736;2022-09-19T17:25:54;2.40;;;1.03;;
12267;SDS011;6196;48.398;11.736;2022-09-19T17:28:23;2.10;;;1.00;;
12267;SDS011;6196;48.398;11.736;2022-09-19T17:30:52;2.53;;;1.00;;
12267;SDS011;6196;48.398;11.736;2022-09-19T17:33:22;4.60;;;1.17;;
12267;SDS011;6196;48.398;11.736;2022-09-19T17:35:51;3.87;;;1.30;;
12267;SDS011;6196;48.398;11.736;2022-09-19T17:38:24;2.20;;;1.13;;
12267;SDS011;6196;48.398;11.736;2022-09-19T17:40:52;1.73;;;1.13;;
12267;SDS011;6196;48.398;11.736;2022-09-19T17:43:19;2.23;;;1.30;;
12267;SDS011;6196;48.398;11.736;2022-09-19T17:45:48;1.37;;;0.90;;
12267;SDS011;6196;48.398;11.736;2022-09-19T17:48:25;1.70;;;0.97;;
12267;SDS011;6196;48.398;11.736;2022-09-19T17:50:53;2.43;;;1.03;;
12267;SDS011;6196;48.398;11.736;2022-09-19T17:53:20;2.50;;;1.13;;
12267;SDS011;6196;48.398;11.736;2022-09-19T17:55:48;2.83;;;1.00;;
12267;SDS011;6196;48.398;11.736;2022-09-19T17:58:15;1.97;;;1.13;;
12267;SDS011;6196;48.398;11.736;2022-09-19T18:00:41;1.80;;;1.10;;
12267;SDS011;6196;48.398;11.736;2022-09-19T18:03:08;1.83;;;1.20;;
12267;SDS011;6196;48.398;11.736;2022-09-19T18:05:58;2.07;;;1.27;;
12267;SDS011;6196;48.398;11.736;2022-09-19T18:08:26;3.27;;;1.40;;
12267;SDS011;6196;48.398;11.736;2022-09-19T18:11:01;2.30;;;1.40;;
12267;SDS011;6196;48.398;11.736;2022-09-19T18:13:29;3.67;;;1.10;;
12267;SDS011;6196;48.398;11.736;2022-09-19T18:16:08;2.27;;;1.20;;
12267;SDS011;6196;48.398;11.736;2022-09-19T18:18:37;2.77;;;1.10;;
12267;SDS011;6196;48.398;11.736;2022-09-19T18:21:04;2.50;;;1.30;;
12267;SDS011;6196;48.398;11.736;2022-09-19T18:23:33;2.70;;;1.30;;
12267;SDS011;6196;48.398;11.736;2022-09-19T18:26:02;2.73;;;1.10;;
12267;SDS011;6196;48.398;11.736;2022-09-19T18:28:32;4.00;;;1.10;;
12267;SDS011;6196;48.398;11.736;2022-09-19T18:31:07;3.03;;;1.20;;
12267;SDS011;6196;48.398;11.736;2022-09-19T18:33:35;4.90;;;1.30;;
12267;SDS011;6196;48.398;11.736;2022-09-19T18:36:08;3.33;;;1.20;;
12267;SDS011;6196;48.398;11.736;2022-09-19T18:38:41;2.57;;;1.10;;
12267;SDS011;6196;48.398;11.736;2022-09-19T18:41:09;2.80;;;1.10;;
12267;SDS011;6196;48.398;11.736;2022-09-19T18:43:37;2.43;;;1.23;;
12267;SDS011;6196;48.398;11.736;2022-09-19T18:46:05;3.40;;;1.20;;